createdAt,value
2022-11-27T00:00:55.551Z,0
2022-11-27T00:01:55.277Z,0
2022-11-27T00:02:56.135Z,0
2022-11-27T00:03:55.945Z,0
2022-11-27T00:04:55.508Z,0
2022-11-27T00:05:55.736Z,0
2022-11-27T00:06:55.200Z,0
2022-11-27T00:07:56.115Z,0
2022-11-27T00:08:55.678Z,0
2022-11-27T00:09:55.136Z,0
2022-11-27T00:10:55.379Z,0
2022-11-27T00:11:55.359Z,0
2022-11-27T00:12:55.332Z,0
2022-11-27T00:13:55.436Z,0
2022-11-27T00:15:00.353Z,0
2022-11-27T00:15:55.551Z,0
2022-11-27T00:16:55.521Z,0
2022-11-27T00:17:55.250Z,0
2022-11-27T00:18:55.367Z,0
2022-11-27T00:19:55.486Z,0
2022-11-27T00:20:55.466Z,0
2022-11-27T00:21:55.193Z,0
2022-11-27T00:22:55.406Z,0
2022-11-27T00:23:55.399Z,0
2022-11-27T00:24:54.863Z,0
2022-11-27T00:25:54.856Z,0
2022-11-27T00:26:55.339Z,0
2022-11-27T00:27:55.059Z,0
2022-11-27T00:28:54.788Z,0
2022-11-27T00:29:55.031Z,0
2022-11-27T00:30:55.288Z,0
2022-11-27T00:31:54.985Z,0
2022-11-27T00:32:54.708Z,0
2022-11-27T00:33:55.121Z,0
2022-11-27T00:34:54.699Z,0
2022-11-27T00:35:55.180Z,0
2022-11-27T00:36:55.459Z,0
2022-11-27T00:37:54.895Z,0
2022-11-27T00:38:54.602Z,0
2022-11-27T00:39:55.105Z,0
2022-11-27T00:40:55.084Z,0
2022-11-27T00:41:54.804Z,0
2022-11-27T00:42:54.543Z,0
2022-11-27T00:43:55.037Z,0
2022-11-27T00:44:54.749Z,0
2022-11-27T00:45:54.786Z,0
2022-11-27T00:46:54.828Z,0
2022-11-27T00:47:54.696Z,0
2022-11-27T00:48:54.415Z,0
2022-11-27T00:49:54.911Z,0
2022-11-27T00:50:54.980Z,0
2022-11-27T00:51:54.392Z,0
2022-11-27T00:52:54.390Z,0
2022-11-27T00:53:54.587Z,0
2022-11-27T00:54:54.307Z,0
2022-11-27T00:55:54.569Z,0
2022-11-27T00:56:54.522Z,0
2022-11-27T00:57:54.246Z,0
2022-11-27T00:58:54.745Z,0
2022-11-27T00:59:54.218Z,0
2022-11-27T01:00:54.452Z,0
2022-11-27T01:01:54.439Z,0
2022-11-27T01:02:54.757Z,0
2022-11-27T01:03:54.654Z,0
2022-11-27T01:04:53.877Z,0
2022-11-27T01:05:53.846Z,0
2022-11-27T01:06:54.618Z,0
2022-11-27T01:07:54.580Z,0
2022-11-27T01:08:54.094Z,0
2022-11-27T01:09:54.287Z,0
2022-11-27T01:11:01.618Z,0
2022-11-27T01:11:53.987Z,0
2022-11-27T01:12:54.231Z,0
2022-11-27T01:13:54.466Z,0
2022-11-27T01:14:54.194Z,0
2022-11-27T01:15:54.108Z,0
2022-11-27T01:16:54.411Z,0
2022-11-27T01:17:54.135Z,0
2022-11-27T01:18:54.426Z,0
2022-11-27T01:19:54.354Z,0
2022-11-27T01:20:54.072Z,0
2022-11-27T01:21:54.059Z,0
2022-11-27T01:22:54.316Z,0
2022-11-27T01:23:53.776Z,0
2022-11-27T01:24:54.025Z,0
2022-11-27T01:25:54.261Z,0
2022-11-27T01:26:54.008Z,0
2022-11-27T01:27:53.938Z,0
2022-11-27T01:28:53.665Z,0
2022-11-27T01:29:53.668Z,0
2022-11-27T01:30:54.610Z,0
2022-11-27T01:31:54.062Z,0
2022-11-27T01:32:54.098Z,0
2022-11-27T01:33:53.837Z,0
2022-11-27T01:34:56.771Z,0
2022-11-27T01:36:25.863Z,0
2022-11-27T01:36:54.028Z,0
2022-11-27T01:37:53.946Z,0
2022-11-27T01:38:53.902Z,0
2022-11-27T01:39:53.845Z,0
2022-11-27T01:40:54.110Z,0
2022-11-27T01:41:53.591Z,0
2022-11-27T01:42:54.048Z,0
2022-11-27T01:43:53.538Z,0
2022-11-27T01:44:53.505Z,0
2022-11-27T01:45:53.738Z,0
2022-11-27T01:46:53.954Z,0
2022-11-27T01:47:53.456Z,0
2022-11-27T01:48:53.439Z,0
2022-11-27T01:49:53.932Z,0
2022-11-27T01:50:53.973Z,0
2022-11-27T01:51:53.365Z,0
2022-11-27T01:52:53.345Z,0
2022-11-27T01:53:53.325Z,0
2022-11-27T01:54:53.841Z,0
2022-11-27T01:55:53.284Z,0
2022-11-27T01:56:53.297Z,0
2022-11-27T01:57:53.505Z,0
2022-11-27T01:58:53.569Z,0
2022-11-27T01:59:53.209Z,0
2022-11-27T02:00:53.699Z,0
2022-11-27T02:01:53.992Z,0
2022-11-27T02:02:53.544Z,0
2022-11-27T02:03:53.646Z,0
2022-11-27T02:04:53.630Z,0
2022-11-27T02:05:53.608Z,0
2022-11-27T02:06:53.382Z,0
2022-11-27T02:07:53.259Z,0
2022-11-27T02:08:53.563Z,0
2022-11-27T02:09:53.267Z,0
2022-11-27T02:10:53.273Z,0
2022-11-27T02:11:53.266Z,0
2022-11-27T02:12:52.981Z,0
2022-11-27T02:13:53.451Z,0
2022-11-27T02:14:53.173Z,0
2022-11-27T02:15:53.501Z,0
2022-11-27T02:16:53.140Z,0
2022-11-27T02:17:53.117Z,0
2022-11-27T02:18:52.857Z,0
2022-11-27T02:19:52.833Z,0
2022-11-27T02:20:53.066Z,0
2022-11-27T02:21:53.039Z,0
2022-11-27T02:22:53.026Z,0
2022-11-27T02:23:52.750Z,0
2022-11-27T02:24:53.009Z,0
2022-11-27T02:25:53.223Z,0
2022-11-27T02:26:52.950Z,0
2022-11-27T02:27:53.155Z,0
2022-11-27T02:28:52.650Z,0
2022-11-27T02:29:52.887Z,0
2022-11-27T02:30:52.803Z,0
2022-11-27T02:31:53.121Z,0
2022-11-27T02:32:52.823Z,0
2022-11-27T02:33:52.554Z,0
2022-11-27T02:34:53.081Z,0
2022-11-27T02:35:52.518Z,0
2022-11-27T02:36:53.010Z,0
2022-11-27T02:37:52.990Z,0
2022-11-27T02:38:52.711Z,0
2022-11-27T02:39:52.430Z,0
2022-11-27T02:40:52.407Z,0
2022-11-27T02:41:52.146Z,0
2022-11-27T02:42:53.367Z,0
2022-11-27T02:43:52.356Z,0
2022-11-27T02:44:52.076Z,0
2022-11-27T02:45:52.315Z,0
2022-11-27T02:46:53.262Z,0
2022-11-27T02:47:52.794Z,0
2022-11-27T02:48:52.252Z,0
2022-11-27T02:49:52.241Z,0
2022-11-27T02:50:52.474Z,0
2022-11-27T02:51:52.193Z,0
2022-11-27T02:52:52.437Z,0
2022-11-27T02:53:52.423Z,0
2022-11-27T02:54:52.651Z,0
2022-11-27T02:55:52.147Z,0
2022-11-27T02:56:52.111Z,0
2022-11-27T02:57:52.347Z,0
2022-11-27T02:58:58.867Z,0
2022-11-27T02:59:52.671Z,0
2022-11-27T03:00:52.025Z,0
2022-11-27T03:01:52.248Z,0
2022-11-27T03:02:52.272Z,0
2022-11-27T03:03:52.471Z,0
2022-11-27T03:04:52.713Z,0
2022-11-27T03:05:53.720Z,0
2022-11-27T03:06:53.955Z,0
2022-11-27T03:07:53.744Z,0
2022-11-27T03:08:53.464Z,0
2022-11-27T03:09:53.903Z,0
2022-11-27T03:10:53.879Z,0
2022-11-27T03:11:53.620Z,0
2022-11-27T03:12:53.334Z,0
2022-11-27T03:13:53.306Z,0
2022-11-27T03:15:00.073Z,0
2022-11-27T03:15:54.025Z,0
2022-11-27T03:16:53.515Z,0
2022-11-27T03:17:54.186Z,0
2022-11-27T03:18:53.482Z,0
2022-11-27T03:19:53.704Z,0
2022-11-27T03:20:53.425Z,0
2022-11-27T03:21:53.149Z,0
2022-11-27T03:22:53.381Z,0
2022-11-27T03:23:53.388Z,0
2022-11-27T03:24:53.602Z,0
2022-11-27T03:25:53.578Z,0
2022-11-27T03:26:52.896Z,0
2022-11-27T03:27:53.032Z,0
2022-11-27T03:28:53.292Z,0
2022-11-27T03:29:53.251Z,0
2022-11-27T03:30:53.876Z,0
2022-11-27T03:31:53.458Z,0
2022-11-27T03:32:52.951Z,0
2022-11-27T03:49:55.286Z,0
2022-11-27T03:50:54.289Z,0
2022-11-27T03:51:54.796Z,0
2022-11-27T03:52:54.260Z,0
2022-11-27T03:53:54.218Z,0
2022-11-27T03:54:54.692Z,0
2022-11-27T03:55:54.421Z,0
2022-11-27T03:56:54.173Z,0
2022-11-27T03:57:54.119Z,0
2022-11-27T03:58:54.095Z,0
2022-11-27T03:59:53.828Z,0
2022-11-27T04:00:54.061Z,0
2022-11-27T04:01:54.635Z,0
2022-11-27T04:02:54.271Z,0
2022-11-27T04:03:54.423Z,0
2022-11-27T04:04:53.725Z,0
2022-11-27T04:05:54.954Z,0
2022-11-27T04:06:53.995Z,0
2022-11-27T04:07:54.773Z,0
2022-11-27T04:08:54.156Z,0
2022-11-27T04:09:53.878Z,0
2022-11-27T04:10:53.882Z,0
2022-11-27T04:11:53.835Z,0
2022-11-27T04:12:54.317Z,0
2022-11-27T04:13:53.575Z,0
2022-11-27T04:14:54.035Z,0
2022-11-27T04:15:54.336Z,0
2022-11-27T04:16:54.009Z,0
2022-11-27T04:17:53.969Z,0
2022-11-27T04:18:53.956Z,0
2022-11-27T04:19:54.212Z,0
2022-11-27T04:20:54.163Z,0
2022-11-27T04:21:54.631Z,0
2022-11-27T04:22:53.351Z,0
2022-11-27T04:23:53.857Z,0
2022-11-27T04:24:53.832Z,0
2022-11-27T04:25:54.067Z,0
2022-11-27T04:26:54.141Z,0
2022-11-27T04:27:53.821Z,0
2022-11-27T04:28:53.497Z,0
2022-11-27T04:29:53.735Z,0
2022-11-27T04:30:53.450Z,0
2022-11-27T04:31:54.365Z,0
2022-11-27T04:32:53.664Z,0
2022-11-27T04:33:53.396Z,0
2022-11-27T04:34:53.904Z,0
2022-11-27T04:35:53.865Z,0
2022-11-27T04:36:53.587Z,0
2022-11-27T04:37:54.308Z,0
2022-11-27T04:38:53.546Z,0
2022-11-27T04:39:53.539Z,0
2022-11-27T04:40:53.248Z,0
2022-11-27T04:41:53.235Z,0
2022-11-27T04:42:52.973Z,0
2022-11-27T04:43:53.205Z,0
2022-11-27T04:44:53.439Z,0
2022-11-27T04:45:53.417Z,0
2022-11-27T04:46:53.719Z,0
2022-11-27T04:47:53.379Z,0
2022-11-27T04:48:53.607Z,0
2022-11-27T04:49:53.595Z,0
2022-11-27T04:50:53.575Z,0
2022-11-27T04:51:53.561Z,0
2022-11-27T04:52:53.281Z,0
2022-11-27T04:53:53.973Z,0
2022-11-27T04:55:00.368Z,0
2022-11-27T04:55:53.221Z,0
2022-11-27T04:56:53.192Z,0
2022-11-27T04:57:53.430Z,0
2022-11-27T04:58:52.917Z,0
2022-11-27T04:59:53.133Z,0
2022-11-27T05:00:53.092Z,0
2022-11-27T05:01:53.097Z,0
2022-11-27T05:02:53.390Z,0
2022-11-27T05:03:52.803Z,0
2022-11-27T05:04:53.043Z,0
2022-11-27T05:05:53.172Z,0
2022-11-27T05:06:53.675Z,0
2022-11-27T05:07:53.756Z,0
2022-11-27T05:08:53.114Z,0
2022-11-27T05:09:54.087Z,0
2022-11-27T05:10:53.083Z,0
2022-11-27T05:11:53.318Z,0
2022-11-27T05:12:53.029Z,0
2022-11-27T05:13:53.262Z,0
2022-11-27T05:14:53.277Z,0
2022-11-27T05:15:52.897Z,0
2022-11-27T05:16:53.221Z,0
2022-11-27T05:17:53.445Z,0
2022-11-27T05:18:53.431Z,0
2022-11-27T05:19:53.152Z,0
2022-11-27T05:20:53.137Z,0
2022-11-27T05:21:52.858Z,0
2022-11-27T05:22:53.374Z,0
2022-11-27T05:23:52.814Z,0
2022-11-27T05:24:53.433Z,0
2022-11-27T05:25:54.397Z,0
2022-11-27T05:26:53.486Z,0
2022-11-27T05:27:53.635Z,0
2022-11-27T05:28:53.347Z,0
2022-11-27T05:29:53.584Z,0
2022-11-27T05:30:54.045Z,0
2022-11-27T05:31:53.990Z,0
2022-11-27T05:32:53.264Z,0
2022-11-27T05:33:53.252Z,0
2022-11-27T05:34:52.974Z,0
2022-11-27T05:35:53.230Z,0
2022-11-27T05:36:53.444Z,0
2022-11-27T05:37:53.696Z,0
2022-11-27T05:38:53.414Z,0
2022-11-27T05:39:53.139Z,0
2022-11-27T05:40:53.371Z,0
2022-11-27T05:41:54.086Z,0
2022-11-27T05:42:53.589Z,0
2022-11-27T05:43:53.052Z,0
2022-11-27T05:45:00.662Z,0
2022-11-27T05:45:53.025Z,0
2022-11-27T05:46:53.637Z,0
2022-11-27T05:47:53.227Z,0
2022-11-27T05:48:53.220Z,0
2022-11-27T05:49:53.194Z,0
2022-11-27T05:50:53.177Z,0
2022-11-27T05:51:58.007Z,0
2022-11-27T05:52:52.621Z,0
2022-11-27T05:53:53.121Z,0
2022-11-27T05:54:53.348Z,0
2022-11-27T05:55:53.336Z,0
2022-11-27T05:56:53.056Z,0
2022-11-27T05:57:53.774Z,0
2022-11-27T05:58:53.325Z,0
2022-11-27T05:59:52.850Z,0
2022-11-27T06:00:52.991Z,0
2022-11-27T06:01:53.531Z,0
2022-11-27T06:02:53.969Z,0
2022-11-27T06:03:53.357Z,0
2022-11-27T06:04:52.645Z,0
2022-11-27T06:05:53.134Z,0
2022-11-27T06:06:52.349Z,0
2022-11-27T06:07:53.398Z,0
2022-11-27T06:08:52.833Z,0
2022-11-27T06:09:52.644Z,4
2022-11-27T06:10:52.277Z,0
2022-11-27T06:11:52.513Z,4
2022-11-27T06:12:52.524Z,0
2022-11-27T06:13:53.535Z,4
2022-11-27T06:14:52.338Z,4
2022-11-27T06:15:52.683Z,4
2022-11-27T06:16:53.368Z,4
2022-11-27T06:17:52.901Z,4
2022-11-27T06:18:52.882Z,4
2022-11-27T06:19:52.669Z,8
2022-11-27T06:20:59.946Z,12
2022-11-27T06:21:52.312Z,12
2022-11-27T06:22:52.297Z,12
2022-11-27T06:23:52.531Z,16
2022-11-27T06:24:52.509Z,20
2022-11-27T06:25:52.493Z,24
2022-11-27T06:26:52.484Z,24
2022-11-27T06:27:52.187Z,28
2022-11-27T06:28:52.166Z,32
2022-11-27T06:29:53.234Z,40
2022-11-27T06:30:52.138Z,44
2022-11-27T06:31:53.092Z,52
2022-11-27T06:32:52.618Z,56
2022-11-27T06:33:52.081Z,60
2022-11-27T06:34:52.603Z,72
2022-11-27T06:35:52.033Z,76
2022-11-27T06:36:52.274Z,84
2022-11-27T06:37:51.997Z,96
2022-11-27T06:38:52.488Z,104
2022-11-27T06:39:52.217Z,116
2022-11-27T06:40:52.452Z,128
2022-11-27T06:41:51.939Z,140
2022-11-27T06:42:52.155Z,152
2022-11-27T06:43:52.133Z,168
2022-11-27T06:44:51.602Z,176
2022-11-27T06:45:53.105Z,188
2022-11-27T06:46:51.562Z,200
2022-11-27T06:47:52.063Z,220
2022-11-27T06:48:52.291Z,232
2022-11-27T06:49:52.269Z,252
2022-11-27T06:50:52.005Z,272
2022-11-27T06:51:51.717Z,288
2022-11-27T06:52:51.701Z,308
2022-11-27T06:53:51.975Z,328
2022-11-27T06:54:51.825Z,348
2022-11-27T06:55:52.156Z,364
2022-11-27T06:56:51.884Z,384
2022-11-27T06:57:51.622Z,404
2022-11-27T06:58:51.330Z,432
2022-11-27T06:59:51.837Z,456
2022-11-27T07:00:52.265Z,476
2022-11-27T07:01:52.782Z,496
2022-11-27T07:02:52.026Z,516
2022-11-27T07:03:51.749Z,536
2022-11-27T07:04:51.985Z,556
2022-11-27T07:05:51.192Z,580
2022-11-27T07:06:51.684Z,600
2022-11-27T07:07:51.701Z,620
2022-11-27T07:08:51.145Z,644
2022-11-27T07:09:51.887Z,664
2022-11-27T07:10:51.618Z,688
2022-11-27T07:11:51.593Z,712
2022-11-27T07:12:51.574Z,740
2022-11-27T07:13:51.550Z,756
2022-11-27T07:14:51.268Z,772
2022-11-27T07:15:51.770Z,792
2022-11-27T07:16:51.553Z,812
2022-11-27T07:17:52.097Z,820
2022-11-27T07:18:51.835Z,832
2022-11-27T07:19:51.178Z,848
2022-11-27T07:20:56.746Z,864
2022-11-27T07:21:51.660Z,872
2022-11-27T07:22:51.628Z,896
2022-11-27T07:23:51.626Z,916
2022-11-27T07:24:51.090Z,928
2022-11-27T07:25:51.353Z,924
2022-11-27T07:26:51.053Z,920
2022-11-27T07:27:51.022Z,928
2022-11-27T07:28:51.262Z,932
2022-11-27T07:29:51.499Z,940
2022-11-27T07:30:50.962Z,948
2022-11-27T07:31:51.587Z,964
2022-11-27T07:32:51.453Z,976
2022-11-27T07:33:51.612Z,984
2022-11-27T07:34:51.525Z,988
2022-11-27T07:35:50.876Z,996
2022-11-27T07:36:51.154Z,1012
2022-11-27T07:37:51.087Z,1016
2022-11-27T07:38:51.326Z,1020
2022-11-27T07:40:09.670Z,1032
2022-11-27T07:40:52.731Z,1044
2022-11-27T07:41:51.019Z,1056
2022-11-27T07:42:50.982Z,1068
2022-11-27T07:43:50.984Z,1080
2022-11-27T07:44:50.700Z,1096
2022-11-27T07:45:51.171Z,1120
2022-11-27T07:46:51.173Z,1136
2022-11-27T07:47:50.640Z,1148
2022-11-27T07:48:50.496Z,1160
2022-11-27T07:49:57.417Z,1172
2022-11-27T07:50:50.954Z,1180
2022-11-27T07:51:50.832Z,1192
2022-11-27T07:52:50.800Z,1200
2022-11-27T07:53:50.534Z,1204
2022-11-27T07:54:50.508Z,1212
2022-11-27T07:55:50.737Z,1212
2022-11-27T07:56:50.726Z,1220
2022-11-27T07:57:50.449Z,1228
2022-11-27T07:58:50.945Z,1236
2022-11-27T07:59:54.433Z,1240
2022-11-27T08:00:51.064Z,1256
2022-11-27T08:01:50.627Z,1264
2022-11-27T08:02:50.613Z,1268
2022-11-27T08:03:50.349Z,1284
2022-11-27T08:04:51.789Z,1296
2022-11-27T08:05:51.078Z,1296
2022-11-27T08:06:50.670Z,1296
2022-11-27T08:07:50.831Z,1320
2022-11-27T08:08:50.273Z,1336
2022-11-27T08:09:50.219Z,1340
2022-11-27T08:10:49.943Z,1340
2022-11-27T08:11:50.179Z,1344
2022-11-27T08:12:50.163Z,1348
2022-11-27T08:13:50.406Z,1356
2022-11-27T08:14:50.210Z,1364
2022-11-27T08:15:50.369Z,1368
2022-11-27T08:16:50.416Z,1376
2022-11-27T08:17:50.570Z,1384
2022-11-27T08:18:50.332Z,1384
2022-11-27T08:19:50.546Z,1392
2022-11-27T08:20:50.260Z,1400
2022-11-27T08:21:50.607Z,1408
2022-11-27T08:22:50.347Z,1416
2022-11-27T08:23:50.204Z,1424
2022-11-27T08:24:50.706Z,1436
2022-11-27T08:25:50.417Z,1444
2022-11-27T08:26:51.138Z,1452
2022-11-27T08:27:51.115Z,1460
2022-11-27T08:28:50.588Z,1468
2022-11-27T08:29:50.565Z,1472
2022-11-27T08:30:50.817Z,1468
2022-11-27T08:31:51.377Z,1472
2022-11-27T08:32:50.507Z,1472
2022-11-27T08:33:51.018Z,1476
2022-11-27T08:34:50.849Z,1480
2022-11-27T08:35:51.057Z,1488
2022-11-27T08:36:50.692Z,1492
2022-11-27T08:37:51.033Z,1496
2022-11-27T08:38:51.054Z,1496
2022-11-27T08:39:50.637Z,1504
2022-11-27T08:40:50.362Z,1508
2022-11-27T08:41:50.340Z,1512
2022-11-27T08:42:50.843Z,1520
2022-11-27T08:43:51.087Z,1528
2022-11-27T08:44:50.895Z,1532
2022-11-27T08:45:51.067Z,1540
2022-11-27T08:46:50.779Z,1544
2022-11-27T08:47:51.013Z,1548
2022-11-27T08:48:50.738Z,1552
2022-11-27T08:49:53.052Z,1556
2022-11-27T08:50:50.439Z,1556
2022-11-27T08:51:50.173Z,1560
2022-11-27T08:52:50.655Z,1560
2022-11-27T08:53:56.834Z,1560
2022-11-27T08:54:57.678Z,1560
2022-11-27T08:55:50.344Z,1560
2022-11-27T08:56:50.072Z,1560
2022-11-27T08:57:50.567Z,1560
2022-11-27T08:58:50.804Z,1560
2022-11-27T08:59:50.270Z,1556
2022-11-27T09:00:50.809Z,1560
2022-11-27T09:01:50.263Z,1556
2022-11-27T09:02:50.480Z,1556
2022-11-27T09:03:50.533Z,1556
2022-11-27T09:04:50.287Z,1560
2022-11-27T09:05:50.156Z,1556
2022-11-27T09:06:52.902Z,1564
2022-11-27T09:07:50.783Z,1564
2022-11-27T09:08:50.355Z,1568
2022-11-27T09:09:50.580Z,1568
2022-11-27T09:10:50.555Z,1572
2022-11-27T09:11:50.044Z,1580
2022-11-27T09:12:50.721Z,1580
2022-11-27T09:13:50.261Z,1588
2022-11-27T09:14:50.500Z,1596
2022-11-27T09:15:49.976Z,1596
2022-11-27T09:16:50.690Z,1604
2022-11-27T09:17:49.675Z,1608
2022-11-27T09:18:49.913Z,1616
2022-11-27T09:19:50.423Z,1620
2022-11-27T09:20:50.133Z,1624
2022-11-27T09:21:50.145Z,1648
2022-11-27T09:22:50.355Z,1656
2022-11-27T09:23:49.834Z,1660
2022-11-27T09:24:50.166Z,1640
2022-11-27T09:25:50.541Z,1636
2022-11-27T09:26:50.266Z,1644
2022-11-27T09:27:50.015Z,1636
2022-11-27T09:28:50.012Z,1628
2022-11-27T09:29:49.721Z,1628
2022-11-27T09:30:50.204Z,1628
2022-11-27T09:31:50.028Z,1628
2022-11-27T09:32:49.925Z,1616
2022-11-27T09:33:50.156Z,1596
2022-11-27T09:34:50.389Z,1588
2022-11-27T09:35:49.917Z,1580
2022-11-27T09:36:49.888Z,1568
2022-11-27T09:37:50.073Z,1548
2022-11-27T09:38:50.076Z,1532
2022-11-27T09:39:49.787Z,1528
2022-11-27T09:40:49.766Z,1572
2022-11-27T09:41:49.984Z,1576
2022-11-27T09:42:49.984Z,1564
2022-11-27T09:43:49.972Z,1560
2022-11-27T09:44:50.329Z,1568
2022-11-27T09:45:50.165Z,1576
2022-11-27T09:46:50.090Z,1588
2022-11-27T09:47:50.074Z,1596
2022-11-27T09:48:50.055Z,1600
2022-11-27T09:49:50.037Z,1604
2022-11-27T09:50:50.027Z,1608
2022-11-27T09:51:49.745Z,1616
2022-11-27T09:52:49.988Z,1620
2022-11-27T09:53:49.960Z,1624
2022-11-27T09:54:57.378Z,1632
2022-11-27T09:55:49.955Z,1636
2022-11-27T09:56:49.654Z,1640
2022-11-27T09:57:50.388Z,1644
2022-11-27T09:58:50.110Z,1652
2022-11-27T09:59:49.857Z,1656
2022-11-27T10:00:50.095Z,1660
2022-11-27T10:01:56.636Z,1664
2022-11-27T10:02:50.753Z,1676
2022-11-27T10:03:49.787Z,1684
2022-11-27T10:05:23.844Z,1680
2022-11-27T10:05:49.756Z,1684
2022-11-27T10:06:49.475Z,1692
2022-11-27T10:07:50.053Z,1700
2022-11-27T10:08:49.695Z,1700
2022-11-27T10:09:49.678Z,1708
2022-11-27T10:10:49.913Z,1716
2022-11-27T10:11:49.663Z,1712
2022-11-27T10:12:49.363Z,1720
2022-11-27T10:13:49.843Z,1724
2022-11-27T10:14:50.137Z,1732
2022-11-27T10:15:49.568Z,1732
2022-11-27T10:16:51.956Z,1740
2022-11-27T10:17:49.776Z,1692
2022-11-27T10:18:49.792Z,1740
2022-11-27T10:19:49.244Z,1748
2022-11-27T10:20:49.499Z,1756
2022-11-27T10:21:49.491Z,1760
2022-11-27T10:22:49.435Z,1764
2022-11-27T10:23:49.426Z,1768
2022-11-27T10:24:50.123Z,1768
2022-11-27T10:25:49.696Z,1776
2022-11-27T10:26:49.152Z,1784
2022-11-27T10:27:49.364Z,1788
2022-11-27T10:28:49.599Z,1788
2022-11-27T10:29:55.561Z,1784
2022-11-27T10:30:49.707Z,1784
2022-11-27T10:31:49.301Z,1784
2022-11-27T10:33:04.953Z,1788
2022-11-27T10:33:49.514Z,1788
2022-11-27T10:34:49.329Z,1792
2022-11-27T10:35:49.230Z,1796
2022-11-27T10:36:49.210Z,1796
2022-11-27T10:37:49.190Z,1804
2022-11-27T10:38:49.082Z,1812
2022-11-27T10:39:49.157Z,1808
2022-11-27T10:40:49.384Z,1820
2022-11-27T10:41:56.543Z,1832
2022-11-27T10:42:48.840Z,1828
2022-11-27T10:43:49.080Z,1828
2022-11-27T10:44:49.451Z,1820
2022-11-27T10:45:49.761Z,1824
2022-11-27T10:46:49.154Z,1828
2022-11-27T10:47:49.012Z,1824
2022-11-27T10:48:48.990Z,1804
2022-11-27T10:49:48.758Z,1708
2022-11-27T10:50:48.957Z,1756
2022-11-27T10:51:48.690Z,1840
2022-11-27T10:52:55.014Z,1872
2022-11-27T10:53:48.920Z,1904
2022-11-27T10:54:49.455Z,1912
2022-11-27T10:55:49.148Z,1924
2022-11-27T10:56:48.597Z,1932
2022-11-27T10:57:48.862Z,1940
2022-11-27T10:58:48.637Z,1968
2022-11-27T10:59:49.070Z,2012
2022-11-27T11:00:49.013Z,2068
2022-11-27T11:01:55.639Z,2148
2022-11-27T11:02:49.412Z,2208
2022-11-27T11:03:48.782Z,2148
2022-11-27T11:05:31.039Z,2084
2022-11-27T11:06:28.669Z,1988
2022-11-27T11:07:04.705Z,1952
2022-11-27T11:08:05.418Z,1920
2022-11-27T11:09:08.378Z,1880
2022-11-27T11:10:05.193Z,1892
2022-11-27T11:11:05.152Z,1880
2022-11-27T11:12:05.152Z,1840
2022-11-27T11:13:04.858Z,1856
2022-11-27T11:14:05.097Z,1880
2022-11-27T11:15:04.886Z,1856
2022-11-27T11:16:05.338Z,1808
2022-11-27T11:17:05.231Z,1912
2022-11-27T11:18:05.572Z,1904
2022-11-27T11:19:04.513Z,1960
2022-11-27T11:20:04.747Z,2068
2022-11-27T11:21:04.981Z,2160
2022-11-27T11:22:07.259Z,2228
2022-11-27T11:23:04.953Z,2216
2022-11-27T11:24:04.685Z,2208
2022-11-27T11:25:04.930Z,2284
2022-11-27T11:26:04.652Z,2344
2022-11-27T11:27:04.890Z,2444
2022-11-27T11:28:05.724Z,2544
2022-11-27T11:29:05.701Z,2604
2022-11-27T11:30:05.967Z,2624
2022-11-27T11:31:05.415Z,2412
2022-11-27T11:32:06.055Z,2232
2022-11-27T11:33:05.894Z,2248
2022-11-27T11:34:06.124Z,2256
2022-11-27T11:35:08.279Z,2344
2022-11-27T11:36:05.633Z,2440
2022-11-27T11:37:05.572Z,2504
2022-11-27T11:38:05.560Z,2608
2022-11-27T11:39:05.535Z,2504
2022-11-27T11:40:05.539Z,2376
2022-11-27T11:41:05.510Z,2336
2022-11-27T11:42:05.227Z,2212
2022-11-27T11:43:05.214Z,2160
2022-11-27T11:44:05.457Z,2032
2022-11-27T11:45:05.438Z,1968
2022-11-27T11:46:05.230Z,2016
2022-11-27T11:47:05.153Z,2252
2022-11-27T11:48:05.128Z,2228
2022-11-27T11:49:06.562Z,2272
2022-11-27T11:50:07.203Z,2228
2022-11-27T11:51:06.431Z,2128
2022-11-27T11:52:06.927Z,2028
2022-11-27T11:53:06.657Z,2000
2022-11-27T11:54:06.637Z,2020
2022-11-27T11:55:06.880Z,1996
2022-11-27T11:56:06.626Z,1860
2022-11-27T11:57:06.586Z,1804
2022-11-27T11:58:06.306Z,1756
2022-11-27T11:59:06.809Z,1724
2022-11-27T12:00:06.097Z,1724
2022-11-27T12:01:32.803Z,1732
2022-11-27T12:02:06.599Z,1736
2022-11-27T12:03:06.227Z,1732
2022-11-27T12:04:07.045Z,1732
2022-11-27T12:05:07.086Z,1740
2022-11-27T12:06:06.929Z,1744
2022-11-27T12:07:06.160Z,1748
2022-11-27T12:08:06.546Z,1744
2022-11-27T12:09:06.142Z,1732
2022-11-27T12:10:06.123Z,1720
2022-11-27T12:11:06.366Z,1696
2022-11-27T12:12:06.586Z,1684
2022-11-27T12:13:06.062Z,1672
2022-11-27T12:14:06.299Z,1664
2022-11-27T12:15:06.554Z,1656
2022-11-27T12:16:06.306Z,1660
2022-11-27T12:17:06.376Z,1664
2022-11-27T12:18:06.382Z,1676
2022-11-27T12:19:05.967Z,1696
2022-11-27T12:20:05.954Z,1708
2022-11-27T12:21:06.431Z,1736
2022-11-27T12:22:06.422Z,1760
2022-11-27T12:23:06.170Z,1788
2022-11-27T12:24:06.236Z,1824
2022-11-27T12:25:06.113Z,1864
2022-11-27T12:26:05.857Z,1932
2022-11-27T12:27:05.825Z,1984
2022-11-27T12:28:05.961Z,2024
2022-11-27T12:29:06.918Z,2032
2022-11-27T12:30:06.798Z,2060
2022-11-27T12:31:06.454Z,2116
2022-11-27T12:32:06.354Z,2152
2022-11-27T12:33:05.984Z,2108
2022-11-27T12:34:05.728Z,2016
2022-11-27T12:35:05.698Z,1908
2022-11-27T12:36:05.935Z,1844
2022-11-27T12:37:08.817Z,1816
2022-11-27T12:38:06.144Z,1804
2022-11-27T12:39:05.628Z,1808
2022-11-27T12:40:05.869Z,1784
2022-11-27T12:41:05.851Z,1768
2022-11-27T12:42:05.333Z,1736
2022-11-27T12:43:06.075Z,1716
2022-11-27T12:44:05.553Z,1684
2022-11-27T12:45:05.779Z,1644
2022-11-27T12:46:05.552Z,1620
2022-11-27T12:47:05.757Z,1608
2022-11-27T12:48:05.763Z,1592
2022-11-27T12:49:05.717Z,1588
2022-11-27T12:50:05.704Z,1588
2022-11-27T12:51:05.699Z,1588
2022-11-27T12:52:05.678Z,1592
2022-11-27T12:53:06.159Z,1600
2022-11-27T12:54:11.968Z,1604
2022-11-27T12:55:05.748Z,1624
2022-11-27T12:56:05.357Z,1648
2022-11-27T12:57:05.593Z,1668
2022-11-27T12:58:05.654Z,1684
2022-11-27T12:59:05.551Z,1688
2022-11-27T13:00:05.802Z,1664
2022-11-27T13:01:06.174Z,1612
2022-11-27T13:02:06.401Z,1580
2022-11-27T13:03:05.793Z,1536
2022-11-27T13:04:05.473Z,1508
2022-11-27T13:05:05.217Z,1488
2022-11-27T13:06:05.439Z,1480
2022-11-27T13:07:05.425Z,1480
2022-11-27T13:08:05.977Z,1488
2022-11-27T13:09:05.632Z,1492
2022-11-27T13:10:05.764Z,1480
2022-11-27T13:11:05.482Z,1444
2022-11-27T13:12:05.337Z,1400
2022-11-27T13:13:05.364Z,1360
2022-11-27T13:14:05.306Z,1312
2022-11-27T13:15:05.284Z,1312
2022-11-27T13:16:05.663Z,1352
2022-11-27T13:17:06.090Z,1388
2022-11-27T13:18:05.645Z,1404
2022-11-27T13:19:04.972Z,1400
2022-11-27T13:20:04.967Z,1352
2022-11-27T13:21:04.929Z,1324
2022-11-27T13:22:05.169Z,1308
2022-11-27T13:23:05.159Z,1280
2022-11-27T13:24:05.134Z,1352
2022-11-27T13:25:05.617Z,1352
2022-11-27T13:26:05.229Z,1320
2022-11-27T13:27:05.461Z,1256
2022-11-27T13:28:05.176Z,1220
2022-11-27T13:29:04.806Z,1192
2022-11-27T13:30:05.055Z,1184
2022-11-27T13:31:05.207Z,1192
2022-11-27T13:32:05.260Z,1208
2022-11-27T13:33:04.496Z,1244
2022-11-27T13:34:05.227Z,1272
2022-11-27T13:35:04.952Z,1292
2022-11-27T13:36:05.201Z,1300
2022-11-27T13:37:04.412Z,1304
2022-11-27T13:38:05.169Z,1308
2022-11-27T13:39:04.385Z,1308
2022-11-27T13:40:04.881Z,1300
2022-11-27T13:41:05.149Z,1280
2022-11-27T13:42:04.946Z,1256
2022-11-27T13:43:04.940Z,1256
2022-11-27T13:44:08.978Z,1260
2022-11-27T13:45:05.063Z,1256
2022-11-27T13:46:05.137Z,1256
2022-11-27T13:47:04.750Z,1256
2022-11-27T13:48:04.735Z,1260
2022-11-27T13:49:04.717Z,1264
2022-11-27T13:50:04.447Z,1280
2022-11-27T13:51:04.434Z,1276
2022-11-27T13:52:04.921Z,1292
2022-11-27T13:53:04.998Z,1312
2022-11-27T13:54:04.625Z,1312
2022-11-27T13:55:04.360Z,1308
2022-11-27T13:56:04.856Z,1288
2022-11-27T13:57:04.566Z,1284
2022-11-27T13:58:04.694Z,1280
2022-11-27T13:59:04.665Z,1276
2022-11-27T14:00:04.782Z,1260
2022-11-27T14:01:04.829Z,1248
2022-11-27T14:02:04.580Z,1216
2022-11-27T14:03:04.488Z,1164
2022-11-27T14:04:04.220Z,1132
2022-11-27T14:05:04.714Z,1116
2022-11-27T14:06:04.454Z,1108
2022-11-27T14:07:04.669Z,1108
2022-11-27T14:08:04.940Z,1096
2022-11-27T14:09:04.120Z,1080
2022-11-27T14:10:04.353Z,1064
2022-11-27T14:11:04.076Z,1048
2022-11-27T14:12:04.330Z,1040
2022-11-27T14:13:04.785Z,1036
2022-11-27T14:14:04.913Z,1036
2022-11-27T14:15:04.409Z,1032